WetterOnline ( https://www.wetteronline.de )

Wetter aktuell Weißenburg

Aktuelles Wetter: Weißenburg (424m)

6-stündlich | Neueste Meldungen
Ortszeit Temperatur Wetter
Mi, 28.09. 14:00 11.1° C bewölkt
Mi, 28.09. 8:00 9.2° C leichter Regen
Mi, 28.09. 2:00 7.1° C leichter Regen
Di, 27.09. 20:00 7.0° C leicht bewölkt
Di, 27.09. 14:00 10.9° C wolkig
Di, 27.09. 8:00 8.9° C Sprühregen
Di, 27.09. 2:00 10.0° C leichter Regen
Mo, 26.09. 20:00 11.5° C leichter Regen
Ortszeit Temperatur Wetter
Mi, 28.09. 18:30 9.9° C leichter Regen
Mi, 28.09. 18:20 9.9° C leichter Regen
Mi, 28.09. 18:10 10.3° C bedeckt
Mi, 28.09. 18:00 10.6° C bewölkt
Mi, 28.09. 17:50 10.6° C bewölkt
Mi, 28.09. 17:40 10.6° C bedeckt
Mi, 28.09. 17:30 10.6° C bedeckt
Mi, 28.09. 17:00 10.7° C bewölkt
Mi, 28.09. 16:30 10.6° C bedeckt
Mi, 28.09. 16:00 10.4° C bedeckt
Mi, 28.09. 15:30 10.3° C bedeckt
Ortszeit Relative Feuchte Sichtweite
Mi, 28.09. 14:00 71% 60 km
Mi, 28.09. 8:00 89% 7 km
Mi, 28.09. 2:00 85% 60 km
Di, 27.09. 20:00 91% >70 km
Di, 27.09. 14:00 75% 55 km
Di, 27.09. 8:00 87% 35 km
Di, 27.09. 2:00 88% 29 km
Mo, 26.09. 20:00 75% 50 km
Ortszeit Relative Feuchte Sichtweite
Mi, 28.09. 18:30 78% 25 km
Mi, 28.09. 18:20 78% -
Mi, 28.09. 18:10 78% -
Mi, 28.09. 18:00 73% >70 km
Mi, 28.09. 17:50 73% -
Mi, 28.09. 17:40 74% -
Mi, 28.09. 17:30 76% >70 km
Mi, 28.09. 17:00 73% >70 km
Mi, 28.09. 16:30 73% >70 km
Mi, 28.09. 16:00 74% 65 km
Mi, 28.09. 15:30 72% >70 km
Ortszeit Niederschlagsmenge Niederschlagsart
Mi, 28.09. 14:00 0.5 l/m2 in 6 Std. Regen
Mi, 28.09. 8:00 2 l/m2 in 12 Std. Regen
Mi, 28.09. 2:00 0.1 l/m2 in 6 Std. Regen
Di, 27.09. 20:00 2 l/m2 in 12 Std. Regen
Di, 27.09. 14:00 0.7 l/m2 in 6 Std. Regen
Di, 27.09. 8:00 4 l/m2 in 12 Std. Regen
Di, 27.09. 2:00 0.6 l/m2 in 6 Std. Regen
Mo, 26.09. 20:00 0.4 l/m2 in 12 Std. Regen
Ortszeit Niederschlagsmenge Niederschlagsart
Mi, 28.09. 18:30 <0.05 l/m2 in 1 Std. -
Mi, 28.09. 18:20 keine Meldung -
Mi, 28.09. 18:10 keine Meldung -
Mi, 28.09. 18:00 0.0 l/m2 in 1 Std. -
Mi, 28.09. 17:50 keine Meldung -
Mi, 28.09. 17:40 keine Meldung -
Mi, 28.09. 17:30 0.0 l/m2 in 1 Std. -
Mi, 28.09. 17:00 0.0 l/m2 in 1 Std. -
Mi, 28.09. 16:30 0.0 l/m2 in 1 Std. -
Mi, 28.09. 16:00 0.0 l/m2 in 1 Std. -
Mi, 28.09. 15:30 0.0 l/m2 in 1 Std. -
Ortszeit Stärke Spitze Richtung
km/h Bft. km/h Grad Sektor
Mi, 28.09. 14:00 17 3 33 270° W
Mi, 28.09. 8:00 17 3 31 220° SW
Mi, 28.09. 2:00 13 3 24 190° S
Di, 27.09. 20:00 7 2 47 230° SW
Di, 27.09. 14:00 28 4 43 260° W
Di, 27.09. 8:00 17 3 41 250° W
Di, 27.09. 2:00 11 2 29 190° S
Mo, 26.09. 20:00 7 2 25 200° S
Ortszeit Stärke Spitze Richtung
km/h Bft. km/h Grad Sektor
Mi, 28.09. 18:30 11 2 25 220° SW
Mi, 28.09. 18:20 11 2 - 220° SW
Mi, 28.09. 18:10 7 2 - 230° SW
Mi, 28.09. 18:00 11 2 22 240° SW
Mi, 28.09. 17:50 11 2 - 240° SW
Mi, 28.09. 17:40 13 3 - 240° SW
Mi, 28.09. 17:30 7 2 13 220° SW
Mi, 28.09. 17:00 11 2 18 220° SW
Mi, 28.09. 16:30 11 2 17 250° W
Mi, 28.09. 16:00 11 2 25 280° W
Mi, 28.09. 15:30 13 3 26 290° W
Ortszeit Untergrenze Bedeckung Gattung
total tief tief mittel hoch
Mi, 28.09. 14:00 750 m 8/8 4/8 - - -
Mi, 28.09. 8:00 450 m 8/8 8/8 - - -
Mi, 28.09. 2:00 1380 m 7/8 7/8 - - -
Di, 27.09. 20:00 1500 m 3/8 1/8 - - -
Di, 27.09. 14:00 720 m 8/8 1/8 - - -
Di, 27.09. 8:00 480 m 8/8 8/8 - - -
Di, 27.09. 2:00 840 m 7/8 7/8 - - -
Mo, 26.09. 20:00 1470 m 8/8 2/8 - - -
Ortszeit Bedeckungsgrad in Achtel und Wolkenuntergrenze
Mi, 28.09. 18:30 3(720m) 7(2100m) 8(5700m)
Mi, 28.09. 18:20 3(720m) 7(2100m) 8(5700m)
Mi, 28.09. 18:10 8
Mi, 28.09. 18:00 4(900m) 7(1800m) 8(5700m)
Mi, 28.09. 17:50 4(900m) 7(1800m) 8(5700m)
Mi, 28.09. 17:40 8
Mi, 28.09. 17:30 4(930m) 8(1500m) 8(5400m)
Mi, 28.09. 17:00 3(870m) 7(1800m) 8(5100m)
Mi, 28.09. 16:30 5(1230m) 8(1500m)
Mi, 28.09. 16:00 6(1260m) 8(1500m)
Mi, 28.09. 15:30 2(990m) 7(1230m) 8(1440m)
Ortszeit Luftdruck NN (hPa) Tendenz (hPa in 3 Std.)
Mi, 28.09. 14:00 999 + 0,5
Mi, 28.09. 8:00 996 - 1,4
Mi, 28.09. 2:00 1002 - 1,1
Di, 27.09. 20:00 1003 + 0,2
Di, 27.09. 14:00 1002 + 0,4
Di, 27.09. 8:00 1000 + 1,0
Di, 27.09. 2:00 1000 - 2,3
Mo, 26.09. 20:00 1005 - 0,3
Ortszeit Luftdruck NN (hPa) Tendenz (hPa in 3 Std.)
Mi, 28.09. 18:30 1000 + 0,7
Mi, 28.09. 18:20 1000 keine Meldung
Mi, 28.09. 18:10 1000 keine Meldung
Mi, 28.09. 18:00 1000 + 0,6
Mi, 28.09. 17:50 1000 keine Meldung
Mi, 28.09. 17:40 1000 keine Meldung
Mi, 28.09. 17:30 1000 + 0,6
Mi, 28.09. 17:00 1000 + 0,8
Mi, 28.09. 16:30 1000 + 0,6
Mi, 28.09. 16:00 1000 + 0,4
Mi, 28.09. 15:30 1000 + 0,4
Ortszeit Schneehöhe (cm)
Mi, 28.09. 14:00 0
Mi, 28.09. 8:00 0
Mi, 28.09. 2:00 0
Di, 27.09. 20:00 0
Di, 27.09. 14:00 0
Di, 27.09. 8:00 0
Di, 27.09. 2:00 0
Mo, 26.09. 20:00 0
Ortszeit Schneehöhe (cm)
Mi, 28.09. 18:30 0
Mi, 28.09. 18:20 0
Mi, 28.09. 18:10 0
Mi, 28.09. 18:00 0
Mi, 28.09. 17:50 0
Mi, 28.09. 17:40 0
Mi, 28.09. 17:30 0
Mi, 28.09. 17:00 0
Mi, 28.09. 16:30 0
Mi, 28.09. 16:00 0
Mi, 28.09. 15:30 0
Link zu dieser Seite / Seite empfehlen

Das Wetter in ...